Robertsport/Cape Mount Airport

Jump to: basic info | weather | comments

Related pages: nearby airports | nearby navaids | notams | map

Basic information (top)

Codes: GLCM
Location: lon 6.800000, lat -11.367000, elev 10 ft / 3 m msl
Status: small_airport

Weather (top)

Current conditions for Roberts International Airport 69nm (128km) ESE (rec'd 2014/10/21 08:30Z):

GLRB 210830Z 00000KT 8000 RA BKN006 FEW022 CB OVC080 23/23 Q1014 RMK CB-NE TEMPO RA

Airport forecast for Roberts International Airport 69nm (128km) ESE (rec'd 2014/10/21 06:54Z):

TAF TAF GLRB 210400Z 2106/2212 23010KT 8000 BKN014 FEW023CB 
      TEMPO 2107/2112 08010KT 7000 TSRA SCT003 BKN015 FEW024CB 
     FM211300 22008KT 9999 BKN018 FEW026CB

Latest comments (top)

No comments yet for Robertsport/Cape Mount Airport

More... (top)

See also NOTAMs and nearby airports and navaids, or visit the Robertsport/Cape Mount Airport page at the main OurAirports website..